Roans Prairie, Texas
Current Conditions -  °F | °C
As of 2:53 PM on Friday 19 Dec 2014 (Local Time) from KUTS Reporting Station
Overcast Overcast  
Wind Chill: 54°   Ceiling: 900
Heat Index: 54°   Visibility: 10mi
Dew Point: 51°   Wind: 6mph
Humidity: 90%   Direction: NA
Pressure: 30.06"   Gusts: NA
Location:  30.58°N, 95.94°W
Report Text: KUTS 192053Z AUTO VRB05KT 10SM OVC009 12/11 A3006 RMK AO2 SLP176 60001 T01220106 55014
Loading
Personal Weather Stations






























Interactive Weather Map New forecast layout! Learn more

10-Day Weather Forecast

Advertisements
Track Severe Weather on mobile